createdAt,value
2015-11-26T17:21:54.452Z,0
2015-11-26T17:22:04.218Z,0
2015-11-26T17:22:14.222Z,0
2015-11-26T17:22:24.206Z,0
2015-11-26T17:22:40.519Z,0
2015-11-26T17:22:50.253Z,0
2015-11-26T17:23:16.413Z,0
2015-11-26T17:23:26.381Z,0
2015-11-26T17:23:52.756Z,0
2015-11-26T17:24:02.725Z,0
2015-11-26T17:24:12.756Z,0
2015-11-26T17:24:22.790Z,0
2015-11-26T17:24:32.743Z,0
2015-11-26T17:24:42.915Z,0
2015-11-26T17:24:53.133Z,0
2015-11-26T17:25:33.011Z,0
2015-11-26T17:25:49.136Z,0
2015-11-26T17:26:05.246Z,0
2015-11-26T17:26:15.214Z,0
2015-11-26T17:26:25.216Z,0
2015-11-26T17:26:35.216Z,0
2015-11-26T17:26:45.216Z,0
2015-11-26T17:26:55.216Z,0
2015-11-26T17:27:05.435Z,0
2015-11-26T17:27:31.782Z,0
2015-11-26T17:27:41.735Z,0
2015-11-26T17:27:51.766Z,0
2015-11-26T17:28:01.782Z,0
2015-11-26T17:28:11.766Z,0
2015-11-26T17:28:21.753Z,0
2015-11-26T17:28:31.784Z,0
2015-11-26T17:28:41.784Z,0
2015-11-26T17:28:58.096Z,0
2015-11-26T17:29:07.862Z,0
2015-11-26T17:29:23.943Z,0
2015-11-26T17:29:34.146Z,0
2015-11-26T17:29:43.974Z,0
2015-11-26T17:30:06.818Z,0
2015-11-26T17:30:16.818Z,0
2015-11-26T17:30:26.821Z,0
2015-11-26T17:30:36.837Z,0
2015-11-26T17:30:46.837Z,0
2015-11-26T17:30:56.821Z,0
2015-11-26T17:31:06.837Z,0
2015-11-26T17:31:16.837Z,0
2015-11-26T17:31:26.840Z,0
2015-11-26T17:31:36.840Z,0
2015-11-26T17:31:46.840Z,0
2015-11-26T17:31:56.840Z,0
2015-11-26T17:32:06.855Z,0
2015-11-26T17:32:16.855Z,0
2015-11-26T17:32:26.857Z,0
2015-11-26T17:32:36.873Z,0
2015-11-26T17:32:46.857Z,0
2015-11-26T17:32:56.873Z,0
2015-11-26T17:33:06.873Z,0
2015-11-26T17:33:16.873Z,0
2015-11-26T17:33:26.876Z,0
2015-11-26T17:33:36.876Z,0
2015-11-26T17:33:46.876Z,0
2015-11-26T17:33:56.876Z,0
2015-11-26T17:34:06.892Z,0
2015-11-26T17:34:16.892Z,0
2015-11-26T17:34:26.895Z,0
2015-11-26T17:34:36.895Z,0
2015-11-26T17:34:46.895Z,0
2015-11-26T17:34:56.910Z,0
2015-11-26T17:35:09.926Z,0
2015-11-26T17:35:16.910Z,0
2015-11-26T17:35:26.912Z,0
2015-11-26T17:35:36.912Z,0
2015-11-26T17:35:46.912Z,0
2015-11-26T17:35:56.928Z,0
2015-11-26T17:36:06.928Z,0
2015-11-26T17:36:16.928Z,0
2015-11-26T17:36:26.932Z,0
2015-11-26T17:36:36.932Z,0
2015-11-26T17:36:46.932Z,0
2015-11-26T17:36:56.948Z,0
2015-11-26T17:37:06.948Z,0
2015-11-26T17:37:16.948Z,0
2015-11-26T17:37:26.950Z,0
2015-11-26T17:37:36.950Z,0
2015-11-26T17:37:49.965Z,0
2015-11-26T17:37:56.950Z,0
2015-11-26T17:38:06.965Z,0
2015-11-26T17:38:16.965Z,0
2015-11-26T17:38:26.967Z,0
2015-11-26T17:38:36.967Z,0
2015-11-26T17:38:46.967Z,0
2015-11-26T17:38:56.983Z,0
2015-11-26T17:39:06.983Z,0
2015-11-26T17:39:16.983Z,0
2015-11-26T17:39:26.987Z,0
2015-11-26T17:39:36.987Z,0
2015-11-26T17:39:49.987Z,0
2015-11-26T17:39:56.987Z,0
2015-11-26T17:40:07.002Z,0
2015-11-26T17:40:17.002Z,0
2015-11-26T17:40:27.036Z,0
2015-11-26T17:40:37.004Z,0
2015-11-26T17:40:47.004Z,0
2015-11-26T17:40:57.004Z,0
2015-11-26T17:41:07.004Z,0
2015-11-26T17:41:17.020Z,0
2015-11-26T17:41:27.022Z,0
2015-11-26T17:41:37.022Z,0
2015-11-26T17:41:47.022Z,0
2015-11-26T17:41:57.022Z,0
2015-11-26T17:42:07.038Z,0
2015-11-26T17:42:17.038Z,0
2015-11-26T17:42:27.042Z,0
2015-11-26T17:42:37.042Z,0
2015-11-26T17:42:47.042Z,0
2015-11-26T17:42:57.042Z,0
2015-11-26T17:43:07.057Z,0
2015-11-26T17:43:17.057Z,0
2015-11-26T17:43:27.059Z,0
2015-11-26T17:43:37.059Z,0
2015-11-26T17:43:47.059Z,0
2015-11-26T17:43:57.059Z,0
2015-11-26T17:44:07.059Z,0
2015-11-26T17:44:17.075Z,0
2015-11-26T17:44:27.078Z,0
2015-11-26T17:44:37.078Z,0
2015-11-26T17:44:47.078Z,0
2015-11-26T17:44:57.078Z,0
2015-11-26T17:45:07.094Z,0
2015-11-26T17:45:17.094Z,0
2015-11-26T17:45:27.096Z,0
2015-11-26T17:45:37.096Z,0
2015-11-26T17:45:47.096Z,0
2015-11-26T17:45:57.111Z,0
2015-11-26T17:46:07.111Z,0
2015-11-26T17:46:17.111Z,0
2015-11-26T17:46:27.099Z,0
2015-11-26T17:46:37.114Z,0
2015-11-26T17:46:47.114Z,0
2015-11-26T17:46:57.114Z,0
2015-11-26T17:47:07.130Z,0
2015-11-26T17:47:17.130Z,0
2015-11-26T17:47:27.133Z,0
2015-11-26T17:47:37.133Z,0
2015-11-26T17:47:47.133Z,0
2015-11-26T17:47:57.133Z,0
2015-11-26T17:48:07.133Z,0
2015-11-26T17:48:17.148Z,0
2015-11-26T17:48:27.151Z,0
2015-11-26T17:48:37.151Z,0
2015-11-26T17:48:47.151Z,0
2015-11-26T17:48:57.183Z,0
2015-11-26T17:49:07.151Z,0
2015-11-26T17:49:17.167Z,0
2015-11-26T17:49:27.170Z,0
2015-11-26T17:49:37.170Z,0
2015-11-26T17:49:47.170Z,0
2015-11-26T17:49:57.170Z,0
2015-11-26T17:50:07.186Z,0
2015-11-26T17:50:17.186Z,0
2015-11-26T17:50:27.220Z,0
2015-11-26T17:50:37.189Z,0
2015-11-26T17:50:47.236Z,0
2015-11-26T17:50:57.189Z,0
2015-11-26T17:51:07.189Z,0
2015-11-26T17:51:17.189Z,0
2015-11-26T17:51:27.206Z,0
2015-11-26T17:51:37.206Z,0
2015-11-26T17:51:47.206Z,0
2015-11-26T17:51:57.206Z,0
2015-11-26T17:52:07.206Z,0
2015-11-26T17:52:17.222Z,0
2015-11-26T17:52:27.225Z,0
2015-11-26T17:52:37.225Z,0
2015-11-26T17:52:47.225Z,0
2015-11-26T17:52:57.225Z,0
2015-11-26T17:53:07.241Z,0
2015-11-26T17:53:17.225Z,0
2015-11-26T17:53:27.244Z,0
2015-11-26T17:53:37.244Z,0
2015-11-26T17:53:47.244Z,0
2015-11-26T17:53:57.244Z,0
2015-11-26T17:54:07.244Z,0
2015-11-26T17:54:17.244Z,0
2015-11-26T17:54:27.261Z,0
2015-11-26T17:54:37.277Z,0
2015-11-26T17:54:47.261Z,0
2015-11-26T17:54:57.261Z,0
2015-11-26T17:55:07.277Z,0
2015-11-26T17:55:17.261Z,0
2015-11-26T17:55:27.279Z,0
2015-11-26T17:55:37.294Z,0
2015-11-26T17:55:47.279Z,0
2015-11-26T17:55:57.294Z,0
2015-11-26T17:56:07.294Z,0
2015-11-26T17:56:17.294Z,0
2015-11-26T17:56:27.314Z,0
2015-11-26T17:56:37.345Z,0
2015-11-26T17:56:47.314Z,0
2015-11-26T17:56:57.298Z,0
2015-11-26T17:57:07.298Z,0
2015-11-26T17:57:17.298Z,0
2015-11-26T17:57:27.301Z,0
2015-11-26T17:57:37.317Z,0
2015-11-26T17:57:47.317Z,0
2015-11-26T17:57:57.317Z,0
2015-11-26T17:58:07.317Z,0
2015-11-26T17:58:17.317Z,0
2015-11-26T17:58:27.335Z,0
2015-11-26T17:58:37.335Z,0
2015-11-26T17:58:47.335Z,0
2015-11-26T17:58:57.335Z,0
2015-11-26T17:59:07.350Z,0
2015-11-26T17:59:17.335Z,0
2015-11-26T17:59:27.369Z,0
2015-11-26T17:59:37.353Z,0
2015-11-26T17:59:47.353Z,0
2015-11-26T17:59:57.353Z,0
2015-11-26T18:00:07.353Z,0
2015-11-26T18:00:17.369Z,0
2015-11-26T18:00:27.355Z,0
2015-11-26T18:00:37.371Z,0
2015-11-26T18:00:47.402Z,0
2015-11-26T18:00:57.371Z,0
2015-11-26T18:01:07.418Z,0
2015-11-26T18:01:41.702Z,0
2015-11-26T18:01:51.702Z,0
2015-11-26T18:02:01.686Z,0
2015-11-26T18:02:11.702Z,0
2015-11-26T18:02:21.702Z,0
2015-11-26T18:02:31.705Z,0
2015-11-26T18:02:41.705Z,0
2015-11-26T18:02:51.721Z,0
2015-11-26T18:03:01.705Z,0
2015-11-26T18:03:11.705Z,0
2015-11-26T18:03:21.721Z,0
2015-11-26T18:03:31.723Z,0
2015-11-26T18:03:41.723Z,0
2015-11-26T18:03:51.723Z,0
2015-11-26T18:04:01.723Z,0
2015-11-26T18:04:11.770Z,0
2015-11-26T18:04:21.723Z,0
2015-11-26T18:04:31.741Z,0
2015-11-26T18:04:41.741Z,0
2015-11-26T18:04:51.741Z,0
2015-11-26T18:05:01.741Z,0
2015-11-26T18:05:11.741Z,0
2015-11-26T18:05:21.757Z,0
2015-11-26T18:05:31.744Z,0
2015-11-26T18:05:41.760Z,0
2015-11-26T18:05:51.760Z,0
2015-11-26T18:06:01.760Z,0
2015-11-26T18:06:11.760Z,0
2015-11-26T18:06:21.760Z,0
2015-11-26T18:06:31.778Z,0
2015-11-26T18:06:41.778Z,0
2015-11-26T18:06:51.793Z,0
2015-11-26T18:07:01.778Z,0
2015-11-26T18:07:11.778Z,0
2015-11-26T18:07:21.778Z,0
2015-11-26T18:07:31.796Z,0
2015-11-26T18:07:41.796Z,0
2015-11-26T18:07:51.796Z,0
2015-11-26T18:08:01.796Z,0
2015-11-26T18:08:11.812Z,0
2015-11-26T18:08:21.812Z,0
2015-11-26T18:08:31.798Z,0
2015-11-26T18:08:41.814Z,0
2015-11-26T18:08:51.814Z,0
2015-11-26T18:09:01.814Z,0
2015-11-26T18:09:11.814Z,0
2015-11-26T18:09:21.814Z,0
2015-11-26T18:09:31.817Z,0
2015-11-26T18:09:41.817Z,0
2015-11-26T18:09:51.832Z,0
2015-11-26T18:10:01.832Z,0
2015-11-26T18:10:11.848Z,0
2015-11-26T18:10:21.832Z,0
2015-11-26T18:10:31.835Z,0
2015-11-26T18:10:41.851Z,0
2015-11-26T18:10:51.851Z,0
2015-11-26T18:11:01.851Z,0
2015-11-26T18:11:11.851Z,0
2015-11-26T18:11:21.851Z,0
2015-11-26T18:11:31.869Z,0
2015-11-26T18:11:41.853Z,0
2015-11-26T18:11:51.916Z,0
2015-11-26T18:12:01.869Z,0
2015-11-26T18:12:11.869Z,0
2015-11-26T18:12:21.869Z,0
2015-11-26T18:12:31.873Z,0
2015-11-26T18:12:41.873Z,0
2015-11-26T18:12:51.888Z,0
2015-11-26T18:13:01.904Z,0
2015-11-26T18:13:11.888Z,0
2015-11-26T18:13:21.888Z,0
2015-11-26T18:13:31.890Z,0
2015-11-26T18:13:41.890Z,0
2015-11-26T18:13:51.906Z,0
2015-11-26T18:14:01.906Z,0
2015-11-26T18:14:11.906Z,0
2015-11-26T18:14:21.906Z,0
2015-11-26T18:14:31.909Z,0
2015-11-26T18:14:41.909Z,0
2015-11-26T18:14:51.909Z,0
2015-11-26T18:15:01.925Z,0
2015-11-26T18:15:11.925Z,0
2015-11-26T18:15:21.940Z,0
2015-11-26T18:15:31.928Z,0
2015-11-26T18:15:41.928Z,0
2015-11-26T18:15:51.928Z,0
2015-11-26T18:16:01.943Z,0
2015-11-26T18:16:11.959Z,0
2015-11-26T18:16:21.943Z,0
2015-11-26T18:16:31.945Z,0
2015-11-26T18:16:41.961Z,0
2015-11-26T18:16:51.961Z,0
2015-11-26T18:17:01.961Z,0
2015-11-26T18:17:11.961Z,0
2015-11-26T18:17:21.961Z,0
2015-11-26T18:17:31.964Z,0
2015-11-26T18:17:41.964Z,0
2015-11-26T18:17:51.979Z,0
2015-11-26T18:18:01.979Z,0
2015-11-26T18:18:11.964Z,0
2015-11-26T18:18:21.979Z,0
2015-11-26T18:18:31.982Z,0
2015-11-26T18:18:41.982Z,0
2015-11-26T18:18:51.989Z,0
2015-11-26T18:19:01.989Z,0
2015-11-26T18:19:12.005Z,0
2015-11-26T18:19:22.005Z,0
2015-11-26T18:19:32.008Z,0
2015-11-26T18:19:42.024Z,0
2015-11-26T18:19:52.008Z,0
2015-11-26T18:20:02.008Z,0
2015-11-26T18:20:12.008Z,0
2015-11-26T18:20:22.008Z,0
2015-11-26T18:20:32.010Z,0
2015-11-26T18:20:42.026Z,0
2015-11-26T18:20:52.026Z,0
2015-11-26T18:21:02.026Z,0
2015-11-26T18:21:12.026Z,0
2015-11-26T18:21:22.026Z,0
2015-11-26T18:21:32.044Z,0
2015-11-26T18:21:42.044Z,0
2015-11-26T18:21:52.044Z,0
2015-11-26T18:22:02.044Z,0
2015-11-26T18:22:12.060Z,0
2015-11-26T18:22:22.075Z,0
2015-11-26T18:22:32.062Z,0
2015-11-26T18:22:42.062Z,0
2015-11-26T18:22:52.062Z,0
2015-11-26T18:23:02.062Z,0
2015-11-26T18:23:12.062Z,0
2015-11-26T18:23:22.062Z,0
2015-11-26T18:23:32.065Z,0
2015-11-26T18:23:42.065Z,0
2015-11-26T18:24:07.534Z,0
2015-11-26T18:24:52.818Z,0
2015-11-26T18:26:20.524Z,0
2015-11-26T18:31:57.135Z,0
2015-11-26T18:32:07.135Z,0
2015-11-26T18:32:17.150Z,0
2015-11-26T18:32:27.150Z,0
2015-11-26T18:32:37.150Z,0
2015-11-26T18:32:47.150Z,0
2015-11-26T18:32:57.152Z,0
2015-11-26T18:33:07.168Z,0
2015-11-26T18:33:17.152Z,0
2015-11-26T18:33:27.152Z,0
2015-11-26T18:33:59.468Z,0
2015-11-26T18:34:03.202Z,0
2015-11-26T18:34:13.187Z,0
2015-11-26T18:34:23.202Z,0
2015-11-26T18:34:33.202Z,0
2015-11-26T18:34:43.202Z,0
2015-11-26T18:34:53.202Z,0
2015-11-26T18:35:03.205Z,0
2015-11-26T18:35:13.205Z,0
2015-11-26T18:35:23.221Z,0
2015-11-26T18:35:33.221Z,0
2015-11-26T18:36:01.535Z,0
2015-11-26T18:36:11.535Z,0
2015-11-26T18:36:21.551Z,0
2015-11-26T18:36:31.551Z,0
2015-11-26T18:36:41.551Z,0
2015-11-26T18:36:51.551Z,0
2015-11-26T18:37:01.554Z,0
2015-11-26T18:37:22.866Z,0
2015-11-26T18:37:32.866Z,0
2015-11-26T18:47:28.051Z,20.6
2015-11-26T18:47:38.051Z,20.6
2015-11-26T18:47:48.051Z,20.6
2015-11-26T18:47:58.051Z,20.7
2015-11-26T18:48:08.051Z,20.7
2015-11-26T18:48:18.053Z,20.7
2015-11-26T18:48:28.053Z,20.7
2015-11-26T18:48:38.068Z,20.7
2015-11-26T18:48:48.068Z,20.7
2015-11-26T18:48:58.068Z,20.7
2015-11-26T18:49:08.068Z,20.7
2015-11-26T18:49:18.104Z,20.7
2015-11-26T18:49:28.088Z,20.7
2015-11-26T18:49:38.088Z,20.7
2015-11-26T18:49:48.088Z,20.7
2015-11-26T18:49:58.088Z,20.7
2015-11-26T18:50:08.088Z,20.8
2015-11-26T18:50:18.090Z,20.7
2015-11-26T18:50:28.106Z,20.8
2015-11-26T18:50:38.090Z,20.8
2015-11-26T18:54:54.695Z,20.8
2015-11-26T18:55:04.695Z,20.8
2015-11-26T18:55:14.695Z,20.8
2015-11-26T18:55:24.698Z,20.8
2015-11-26T18:55:34.698Z,20.8
2015-11-26T18:55:44.698Z,20.8
2015-11-26T18:55:54.713Z,20.8
2015-11-26T18:56:04.713Z,20.8
2015-11-26T18:56:14.713Z,20.8
2015-11-26T18:56:24.715Z,20.8
2015-11-26T18:56:34.715Z,20.8
2015-11-26T18:56:44.715Z,20.8
2015-11-26T18:56:54.715Z,20.8
2015-11-26T18:57:04.731Z,20.8
2015-11-26T18:57:14.731Z,20.8
2015-11-26T18:57:24.734Z,20.8
2015-11-26T18:57:34.734Z,20.8
2015-11-26T18:57:44.734Z,20.8
2015-11-26T18:57:54.750Z,20.8
2015-11-26T18:58:04.750Z,20.8
2015-11-26T18:58:14.750Z,20.8
2015-11-26T18:58:24.753Z,20.8
2015-11-26T18:58:34.768Z,20.8
2015-11-26T18:58:44.753Z,20.8
2015-11-26T18:58:54.768Z,20.9
2015-11-26T18:59:04.768Z,20.8
2015-11-26T18:59:14.768Z,20.9
2015-11-26T18:59:24.770Z,20.9
2015-11-26T18:59:34.770Z,20.8
2015-11-26T18:59:44.770Z,20.8
2015-11-26T18:59:54.770Z,20.9
2015-11-26T19:00:04.786Z,20.9
2015-11-26T19:00:14.786Z,20.8
2015-11-26T19:00:24.789Z,20.8
2015-11-26T19:00:34.789Z,20.8
2015-11-26T19:00:44.789Z,20.8
2015-11-26T19:00:54.789Z,20.8
2015-11-26T19:01:04.804Z,20.9
2015-11-26T19:01:14.789Z,20.9
2015-11-26T19:01:24.792Z,20.9
2015-11-26T19:01:34.807Z,20.8
2015-11-26T19:01:44.807Z,20.9
2015-11-26T19:01:54.807Z,20.9
2015-11-26T19:02:04.807Z,20.9
2015-11-26T19:02:14.807Z,20.9
2015-11-26T19:02:24.809Z,20.9
2015-11-26T19:02:34.825Z,20.9
2015-11-26T19:02:44.825Z,20.9
2015-11-26T19:02:54.825Z,20.9
2015-11-26T19:03:04.825Z,20.9
2015-11-26T19:03:14.825Z,20.9
2015-11-26T19:03:24.844Z,20.9
2015-11-26T19:03:34.844Z,20.9
2015-11-26T19:03:44.844Z,20.9
2015-11-26T19:03:54.844Z,20.9
2015-11-26T19:04:16.172Z,20.9
2015-11-26T19:04:26.175Z,20.9
2015-11-26T19:04:36.175Z,20.9
2015-11-26T19:05:01.909Z,20.9
2015-11-26T19:05:11.894Z,20.9
2015-11-26T19:05:21.894Z,20.9
2015-11-26T19:05:56.303Z,20.9
2015-11-26T19:06:06.318Z,20.9
2015-11-26T19:06:16.303Z,20.9
2015-11-26T19:06:26.320Z,20.8
2015-11-26T19:06:36.320Z,20.8
2015-11-26T19:06:46.336Z,20.8
2015-11-26T19:06:56.320Z,20.9
2015-11-26T19:07:06.320Z,20.8
2015-11-26T19:07:16.320Z,20.8
2015-11-26T19:07:26.323Z,20.8
2015-11-26T19:07:36.339Z,20.8
2015-11-26T19:07:46.323Z,20.8
2015-11-26T19:07:56.339Z,20.8
2015-11-26T19:08:06.339Z,20.8
2015-11-26T19:08:16.339Z,20.8
2015-11-26T19:08:26.342Z,20.8
2015-11-26T19:08:36.342Z,20.8
2015-11-26T19:08:46.358Z,20.8
2015-11-26T19:08:56.358Z,20.8
2015-11-26T19:09:06.358Z,20.8
2015-11-26T19:09:16.358Z,20.8
2015-11-26T19:09:29.376Z,20.9
2015-11-26T19:09:36.376Z,20.9
2015-11-26T19:09:46.376Z,20.8
2015-11-26T19:09:56.392Z,20.8
2015-11-26T19:10:06.376Z,20.9
2015-11-26T19:10:16.376Z,20.9
2015-11-26T19:10:26.376Z,20.9
2015-11-26T19:10:36.378Z,20.9
2015-11-26T19:10:46.394Z,20.9
2015-11-26T19:10:56.394Z,20.8
2015-11-26T19:11:06.394Z,20.9
2015-11-26T19:11:16.410Z,20.8
2015-11-26T19:11:26.394Z,20.9
2015-11-26T19:11:36.397Z,20.9
2015-11-26T19:11:46.413Z,20.9
2015-11-26T19:11:56.413Z,20.9
2015-11-26T19:12:06.413Z,21
2015-11-26T19:12:16.413Z,21
2015-11-26T19:12:26.413Z,21
2015-11-26T19:12:36.415Z,21.1
2015-11-26T19:13:13.165Z,21.3
2015-11-26T19:13:23.165Z,21.4
2015-11-26T19:13:33.434Z,21.4
2015-11-26T19:13:43.169Z,21.4
2015-11-26T19:13:53.184Z,21.5
2015-11-26T19:14:03.387Z,21.5
2015-11-26T19:14:20.653Z,21.5
2015-11-26T19:14:30.655Z,21.6
2015-11-26T19:14:40.874Z,21.6
2015-11-26T19:14:50.702Z,21.6
2015-11-26T19:15:18.077Z,21.7
2015-11-26T19:15:28.063Z,21.7
2015-11-26T19:15:45.329Z,21.8
2015-11-26T19:15:55.360Z,21.8
2015-11-26T19:16:05.735Z,21.8
2015-11-26T19:16:32.833Z,21.8
2015-11-26T19:16:43.052Z,21.8
2015-11-26T19:16:52.833Z,21.9
2015-11-26T19:17:02.833Z,21.9
2015-11-26T19:17:20.286Z,21.9
2015-11-26T19:17:30.100Z,22
2015-11-26T19:17:40.100Z,22
2015-11-26T19:17:50.304Z,22
2015-11-26T19:18:00.100Z,22.1
2015-11-26T19:18:10.116Z,22.1
2015-11-26T19:18:20.366Z,22.1
2015-11-26T19:18:30.338Z,22.1
2015-11-26T19:18:58.213Z,22.1
2015-11-26T19:19:07.807Z,22.2
2015-11-26T19:19:17.822Z,22.2
2015-11-26T19:19:28.010Z,22.2
2015-11-26T19:19:37.810Z,22.2
2015-11-26T19:19:47.810Z,22.2
2015-11-26T19:19:58.200Z,22.2
2015-11-26T19:20:25.497Z,22.2
2015-11-26T19:20:35.500Z,22.3
2015-11-26T19:20:45.297Z,22.3
2015-11-26T19:21:12.797Z,22.3
2015-11-26T19:21:40.268Z,22.3
2015-11-26T19:21:50.096Z,22.3
2015-11-26T19:22:07.565Z,22.3
2015-11-26T19:22:17.565Z,22.3
2015-11-26T19:22:34.846Z,22.4
2015-11-26T19:22:44.849Z,22.4
2015-11-26T19:22:55.068Z,22.4
2015-11-26T19:23:05.068Z,22.4
2015-11-26T19:23:14.864Z,22.4
2015-11-26T19:23:24.864Z,22.4
2015-11-26T19:23:34.849Z,22.5
2015-11-26T19:23:45.039Z,22.4
2015-11-26T19:23:54.867Z,22.5
2015-11-26T19:24:12.133Z,22.5
2015-11-26T19:24:22.305Z,22.5
2015-11-26T19:24:32.336Z,22.5
2015-11-26T19:24:42.135Z,22.4
2015-11-26T19:24:52.338Z,22.5
2015-11-26T19:25:02.151Z,22.5
2015-11-26T19:25:12.166Z,22.5
2015-11-26T19:25:22.557Z,22.5
2015-11-26T19:25:32.151Z,22.5
2015-11-26T19:25:42.169Z,22.5
2015-11-26T19:25:52.357Z,22.6
2015-11-26T19:26:02.169Z,22.6
2015-11-26T19:26:12.138Z,22.6
2015-11-26T19:26:22.372Z,22.6
2015-11-26T19:26:35.169Z,22.6
2015-11-26T19:26:42.375Z,22.6
2015-11-26T19:26:52.172Z,22.6
2015-11-26T19:27:02.157Z,22.6
2015-11-26T19:27:12.391Z,22.6
2015-11-26T19:27:22.532Z,22.7
2015-11-26T19:27:32.157Z,22.6
2015-11-26T19:27:42.378Z,22.6
2015-11-26T19:27:52.175Z,22.6
2015-11-26T19:28:02.207Z,22.6
2015-11-26T19:28:19.425Z,22.5
2015-11-26T19:28:29.488Z,22.5
2015-11-26T19:28:47.146Z,22.6
2015-11-26T19:28:56.740Z,22.6
2015-11-26T19:29:24.443Z,22.6
2015-11-26T19:29:51.321Z,22.7
2015-11-26T19:30:01.352Z,22.7
2015-11-26T19:30:11.337Z,22.7
2015-11-26T19:30:21.352Z,22.7
2015-11-26T19:30:38.805Z,22.7
2015-11-26T19:30:49.230Z,22.7
2015-11-26T19:30:58.871Z,22.8
2015-11-26T19:31:09.027Z,22.7
2015-11-26T19:31:18.793Z,22.7
2015-11-26T19:31:46.092Z,22.7
2015-11-26T19:31:56.092Z,22.7
2015-11-26T19:32:06.092Z,22.7
2015-11-26T19:32:16.076Z,22.7
2015-11-26T19:32:50.829Z,22.8
2015-11-26T19:33:18.740Z,22.8
2015-11-26T19:33:29.318Z,22.8
2015-11-26T19:33:38.709Z,22.8
2015-11-26T19:33:55.977Z,22.8
2015-11-26T19:34:05.962Z,22.8
2015-11-26T19:34:16.181Z,22.8
2015-11-26T19:34:25.977Z,22.8
2015-11-26T19:34:35.946Z,22.8
2015-11-26T19:35:17.387Z,22.7
2015-11-26T19:35:44.668Z,22.8
2015-11-26T19:35:54.671Z,22.8
2015-11-26T19:36:04.671Z,22.8
2015-11-26T19:36:21.921Z,22.8
2015-11-26T19:36:32.124Z,22.8
2015-11-26T19:36:41.905Z,22.8
2015-11-26T19:36:52.532Z,22.8
2015-11-26T19:37:02.142Z,22.8
2015-11-26T19:37:11.939Z,22.8
2015-11-26T19:37:22.345Z,22.8
2015-11-26T19:38:03.551Z,22.7
2015-11-26T19:38:38.285Z,22.8
2015-11-26T19:38:48.301Z,22.8
2015-11-26T19:38:58.272Z,22.8
2015-11-26T19:39:08.319Z,22.8
2015-11-26T19:39:18.522Z,22.8
2015-11-26T19:39:35.975Z,22.8
2015-11-26T19:39:45.975Z,22.8
2015-11-26T19:39:55.790Z,22.8
2015-11-26T19:40:05.790Z,22.8
2015-11-26T19:40:15.759Z,22.8
2015-11-26T19:40:25.790Z,22.8
2015-11-26T19:40:35.993Z,22.8
2015-11-26T19:40:45.790Z,22.8
2015-11-26T19:41:13.262Z,22.8
2015-11-26T19:41:23.278Z,22.8
2015-11-26T19:41:33.293Z,22.8
2015-11-26T19:41:43.293Z,22.8
2015-11-26T19:41:53.496Z,22.8
2015-11-26T19:42:03.312Z,22.8
2015-11-26T19:42:13.312Z,22.8
2015-11-26T19:42:23.312Z,22.9
2015-11-26T19:42:40.578Z,22.9
2015-11-26T19:42:50.578Z,22.8
2015-11-26T19:43:00.580Z,22.8
2015-11-26T19:43:18.048Z,22.8
2015-11-26T19:43:27.845Z,22.7
2015-11-26T19:43:37.845Z,22.6
2015-11-26T19:43:47.814Z,22.5
2015-11-26T19:43:57.848Z,22.5
2015-11-26T19:44:08.051Z,22.4
2015-11-26T19:44:17.833Z,22.4
2015-11-26T19:44:35.583Z,22.4
2015-11-26T19:44:45.567Z,22.3
2015-11-26T19:44:55.598Z,22.3
2015-11-26T19:45:05.804Z,22.3
2015-11-26T19:45:15.586Z,22.2
2015-11-26T19:45:25.601Z,22.2
2015-11-26T19:45:36.007Z,22.2
2015-11-26T19:45:45.617Z,22.2
2015-11-26T19:45:55.632Z,22.2
2015-11-26T19:46:05.620Z,22.1
2015-11-26T19:46:16.042Z,22.1
2015-11-26T19:46:25.635Z,22.1
2015-11-26T19:46:35.807Z,22.1
2015-11-26T19:46:45.635Z,22.1
2015-11-26T19:46:55.635Z,22.1
2015-11-26T19:47:05.841Z,22
2015-11-26T19:47:15.653Z,22.1
2015-11-26T19:47:33.325Z,22
2015-11-26T19:47:43.309Z,22
2015-11-26T19:48:00.559Z,22
2015-11-26T19:48:10.765Z,22
2015-11-26T19:48:28.015Z,22
2015-11-26T19:48:38.000Z,22
2015-11-26T19:48:48.437Z,22
2015-11-26T19:48:58.234Z,22
2015-11-26T19:49:08.237Z,22
2015-11-26T19:49:18.034Z,22
2015-11-26T19:49:28.050Z,22
2015-11-26T19:49:38.253Z,22
2015-11-26T19:49:48.050Z,22
2015-11-26T19:49:58.050Z,22
2015-11-26T19:50:15.303Z,22
2015-11-26T19:50:25.287Z,21.9
2015-11-26T19:50:35.725Z,21.9
2015-11-26T19:50:52.975Z,21.9
2015-11-26T19:51:03.021Z,21.9
2015-11-26T19:51:12.992Z,21.9
2015-11-26T19:51:22.992Z,21.9
2015-11-26T19:51:32.992Z,21.9
2015-11-26T19:51:43.008Z,21.9
2015-11-26T19:51:53.211Z,21.9
2015-11-26T19:52:02.992Z,21.9
2015-11-26T19:52:12.995Z,21.8
2015-11-26T19:52:23.011Z,21.8
2015-11-26T19:52:33.011Z,21.8
2015-11-26T19:52:42.995Z,21.8
2015-11-26T19:52:53.230Z,21.8
2015-11-26T19:53:03.230Z,21.8
2015-11-26T19:53:20.499Z,21.8
2015-11-26T19:53:30.499Z,21.8
2015-11-26T19:53:58.421Z,21.8
2015-11-26T19:54:15.655Z,21.8
2015-11-26T19:54:25.689Z,21.8
2015-11-26T19:55:10.454Z,21.8
2015-11-26T19:55:20.454Z,21.8
2015-11-26T19:55:30.254Z,21.8
2015-11-26T19:55:40.239Z,21.8
2015-11-26T19:55:50.270Z,21.7
2015-11-26T19:56:00.270Z,21.8
2015-11-26T19:56:10.473Z,21.7
2015-11-26T19:56:20.270Z,21.7
2015-11-26T19:56:30.273Z,21.7
2015-11-26T19:56:40.288Z,21.7
2015-11-26T19:56:58.148Z,21.7
2015-11-26T19:57:15.601Z,21.7
2015-11-26T19:57:25.604Z,21.7
2015-11-26T19:57:35.620Z,21.7
2015-11-26T19:57:45.604Z,21.7
2015-11-26T19:57:55.791Z,21.7
2015-11-26T19:58:05.620Z,21.7
2015-11-26T19:58:15.620Z,21.7
2015-11-26T19:58:25.607Z,21.7
2015-11-26T19:58:35.638Z,21.7
2015-11-26T19:59:03.529Z,21.7
2015-11-26T19:59:13.748Z,21.7
2015-11-26T19:59:40.812Z,21.7
2015-11-26T19:59:50.859Z,21.7
2015-11-26T20:00:00.812Z,21.7
2015-11-26T20:00:10.812Z,21.7
2015-11-26T20:00:20.984Z,21.7
2015-11-26T20:00:31.034Z,21.7
2015-11-26T20:00:40.815Z,21.7
2015-11-26T20:00:51.003Z,21.7
2015-11-26T20:01:01.034Z,21.7
2015-11-26T20:01:11.049Z,21.7
2015-11-26T20:01:21.237Z,21.6
2015-11-26T20:01:30.848Z,21.7
2015-11-26T20:01:40.848Z,21.7
2015-11-26T20:01:51.051Z,21.7
2015-11-26T20:02:00.833Z,21.7
2015-11-26T20:02:18.098Z,21.7
2015-11-26T20:02:28.101Z,21.7
2015-11-26T20:02:38.101Z,21.7
2015-11-26T20:02:48.117Z,21.7
2015-11-26T20:02:58.070Z,21.6
2015-11-26T20:03:08.101Z,21.7
2015-11-26T20:03:18.117Z,21.7
2015-11-26T20:03:28.322Z,21.7
2015-11-26T20:03:38.135Z,21.7
2015-11-26T20:03:48.119Z,21.7
2015-11-26T20:03:58.119Z,21.7
2015-11-26T20:04:08.135Z,21.7
2015-11-26T20:04:52.529Z,21.7
2015-11-26T20:05:30.937Z,21.6
2015-11-26T20:05:40.937Z,21.6
2015-11-26T20:05:50.937Z,21.6
2015-11-26T20:06:00.937Z,21.6
2015-11-26T20:06:11.328Z,21.6
2015-11-26T20:06:28.581Z,21.6
2015-11-26T20:06:38.597Z,21.6
2015-11-26T20:06:48.581Z,21.6
2015-11-26T20:06:58.800Z,21.6
2015-11-26T20:07:08.628Z,21.6
2015-11-26T20:07:18.597Z,21.6
2015-11-26T20:07:28.614Z,21.6
2015-11-26T20:07:38.614Z,21.6
2015-11-26T20:07:48.614Z,21.6
2015-11-26T20:08:05.864Z,21.6
2015-11-26T20:08:15.880Z,21.6
2015-11-26T20:08:25.880Z,21.6
2015-11-26T20:08:53.353Z,21.6
2015-11-26T20:09:03.181Z,21.6
2015-11-26T20:09:13.181Z,21.6
2015-11-26T20:09:23.181Z,21.6
2015-11-26T20:09:33.167Z,21.6
2015-11-26T20:09:43.386Z,21.6
2015-11-26T20:09:53.183Z,21.6
2015-11-26T20:10:03.402Z,21.6
2015-11-26T20:10:13.402Z,21.6
2015-11-26T20:10:23.198Z,21.6
2015-11-26T20:10:40.466Z,21.6
2015-11-26T20:11:21.872Z,21.6
2015-11-26T20:11:32.063Z,21.6
2015-11-26T20:11:42.078Z,21.6
2015-11-26T20:11:52.328Z,21.6
2015-11-26T20:12:01.860Z,21.6
2015-11-26T20:12:19.110Z,21.6
2015-11-26T20:12:29.141Z,21.6
2015-11-26T20:12:39.519Z,21.6
2015-11-26T20:12:56.785Z,21.6
2015-11-26T20:13:06.785Z,21.5
2015-11-26T20:13:24.035Z,21.5
2015-11-26T20:13:34.035Z,21.5
2015-11-26T20:13:44.053Z,21.6
2015-11-26T20:13:54.022Z,21.5
2015-11-26T20:14:04.069Z,21.5
2015-11-26T20:14:14.022Z,21.6
2015-11-26T20:14:24.256Z,21.5
2015-11-26T20:14:34.069Z,21.6
2015-11-26T20:14:44.072Z,21.6
2015-11-26T20:14:54.072Z,21.6
2015-11-26T20:15:04.072Z,21.6
2015-11-26T20:15:14.072Z,21.6
2015-11-26T20:15:24.072Z,21.5
2015-11-26T20:15:34.087Z,21.5
2015-11-26T20:15:44.293Z,21.5
2015-11-26T20:15:54.105Z,21.5
2015-11-26T20:16:21.980Z,21.5
2015-11-26T20:16:31.371Z,21.5
2015-11-26T20:16:58.639Z,21.5
2015-11-26T20:17:08.858Z,21.5
2015-11-26T20:17:18.671Z,21.5
2015-11-26T20:17:28.874Z,21.5
2015-11-26T20:17:38.674Z,21.5
2015-11-26T20:17:49.283Z,21.5
2015-11-26T20:17:58.689Z,21.5
2015-11-26T20:18:08.892Z,21.5
2015-11-26T20:18:18.689Z,21.5
2015-11-26T20:18:28.705Z,21.5
2015-11-26T20:18:38.707Z,21.5
2015-11-26T20:18:48.707Z,21.5
2015-11-26T20:18:58.707Z,21.5
2015-11-26T20:19:08.707Z,21.5
2015-11-26T20:19:18.707Z,21.5
2015-11-26T20:19:28.707Z,21.5
2015-11-26T20:19:38.710Z,21.5
2015-11-26T20:19:48.725Z,21.5
2015-11-26T20:19:59.335Z,21.5
2015-11-26T20:20:08.710Z,21.5
2015-11-26T20:20:18.929Z,21.5
2015-11-26T20:20:28.929Z,21.5
2015-11-26T20:20:38.727Z,21.5